createdAt,value
2018-02-06T00:01:08.153Z,15.95
2018-02-06T00:03:35.743Z,14.02
2018-02-06T00:06:03.283Z,14.63
2018-02-06T00:08:30.869Z,16.62
2018-02-06T00:10:58.418Z,19.12
2018-02-06T00:13:25.995Z,18.17
2018-02-06T00:15:53.620Z,18.20
2018-02-06T00:18:21.201Z,17.30
2018-02-06T00:20:48.745Z,10.85
2018-02-06T00:23:16.320Z,15.50
2018-02-06T00:25:43.851Z,16.67
2018-02-06T00:28:11.440Z,16.45
2018-02-06T00:30:38.978Z,14.23
2018-02-06T00:33:06.558Z,9.70
2018-02-06T00:35:34.199Z,15.68
2018-02-06T00:38:01.779Z,15.48
2018-02-06T00:40:29.324Z,14.43
2018-02-06T00:42:56.863Z,14.57
2018-02-06T00:45:24.443Z,16.35
2018-02-06T00:47:52.031Z,14.82
2018-02-06T00:50:19.559Z,16.17
2018-02-06T00:52:47.138Z,13.57
2018-02-06T00:55:14.676Z,14.63
2018-02-06T00:57:42.266Z,16.37
2018-02-06T01:00:09.815Z,15.50
2018-02-06T01:02:37.357Z,16.50
2018-02-06T01:05:04.931Z,17.40
2018-02-06T01:07:32.458Z,15.18
2018-02-06T01:10:00.049Z,16.52
2018-02-06T01:12:27.592Z,11.82
2018-02-06T01:14:55.170Z,14.70
2018-02-06T01:17:22.731Z,14.48
2018-02-06T01:19:50.306Z,16.40
2018-02-06T01:22:18.640Z,18.73
2018-02-06T01:24:46.225Z,15.38
2018-02-06T01:27:13.765Z,16.35
2018-02-06T01:29:41.346Z,17.17
2018-02-06T01:32:08.890Z,16.55
2018-02-06T01:34:36.464Z,15.38
2018-02-06T01:37:04.014Z,16.00
2018-02-06T01:39:31.601Z,15.70
2018-02-06T01:41:59.141Z,17.45
2018-02-06T01:44:26.723Z,15.35
2018-02-06T01:46:54.272Z,18.15
2018-02-06T01:49:21.844Z,19.50
2018-02-06T01:51:49.381Z,17.08
2018-02-06T01:54:16.961Z,16.62
2018-02-06T01:56:44.496Z,17.17
2018-02-06T01:59:12.072Z,15.73
2018-02-06T02:01:39.602Z,14.87
2018-02-06T02:04:07.178Z,13.20
2018-02-06T02:06:34.731Z,14.52
2018-02-06T02:09:02.368Z,19.87
2018-02-06T02:11:30.643Z,16.62
2018-02-06T02:13:58.227Z,18.08
2018-02-06T02:16:25.810Z,17.52
2018-02-06T02:18:53.396Z,16.77
2018-02-06T02:21:21.694Z,17.40
2018-02-06T02:23:50.032Z,15.13
2018-02-06T02:26:17.569Z,15.43
2018-02-06T02:28:45.144Z,14.85
2018-02-06T02:31:12.683Z,17.10
2018-02-06T02:33:40.268Z,16.27
2018-02-06T02:36:07.807Z,18.10
2018-02-06T02:38:35.459Z,18.08
2018-02-06T02:41:02.985Z,16.58
2018-02-06T04:39:14.758Z,18.40
2018-02-06T04:41:43.086Z,17.17
2018-02-06T04:44:10.612Z,17.77
2018-02-06T04:46:38.181Z,14.93
2018-02-06T04:49:05.702Z,16.02
2018-02-06T04:51:34.033Z,18.62
2018-02-06T04:54:01.549Z,18.60
2018-02-06T04:56:29.873Z,18.25
2018-02-06T04:58:57.392Z,18.48
2018-02-06T05:04:11.372Z,18.75
2018-02-06T05:06:39.039Z,18.35
2018-02-06T05:09:06.645Z,19.35
2018-02-06T05:11:34.170Z,18.27
2018-02-06T05:14:01.729Z,18.75
2018-02-06T05:16:29.250Z,18.30
2018-02-06T05:18:57.596Z,18.42
2018-02-06T05:21:25.125Z,17.92
2018-02-06T05:23:52.674Z,18.35
2018-02-06T05:26:20.246Z,17.95
2018-02-06T05:28:47.782Z,17.95
2018-02-06T05:31:15.320Z,18.87
2018-02-06T05:33:43.659Z,20.85
2018-02-06T05:36:11.289Z,20.23
2018-02-06T05:38:38.860Z,18.67
2018-02-06T05:41:06.441Z,18.52
2018-02-06T05:43:34.014Z,20.10
2018-02-06T05:46:01.557Z,18.85
2018-02-06T05:48:29.139Z,19.52
2018-02-06T05:50:57.532Z,15.18
2018-02-06T05:53:25.088Z,20.08
2018-02-06T05:55:53.389Z,18.08
2018-02-06T05:58:20.974Z,20.27
2018-02-06T06:00:48.554Z,19.77
2018-02-06T06:03:16.091Z,20.65
2018-02-06T06:05:43.659Z,21.15
2018-02-06T06:08:11.197Z,19.60
2018-02-06T06:10:38.774Z,17.50
2018-02-06T06:13:06.307Z,19.15
2018-02-06T06:15:33.863Z,20.00
2018-02-06T06:18:01.439Z,19.98
2018-02-06T06:20:28.987Z,18.98
2018-02-06T06:22:56.560Z,21.55
2018-02-06T06:25:24.137Z,21.85
2018-02-06T06:27:51.683Z,22.77
2018-02-06T06:30:19.257Z,23.15
2018-02-06T06:32:46.836Z,19.73
2018-02-06T06:35:14.377Z,23.15
2018-02-06T06:37:41.964Z,20.80
2018-02-06T06:40:09.500Z,20.25
2018-02-06T06:42:37.035Z,22.60
2018-02-06T06:45:04.609Z,19.52
2018-02-06T06:47:32.136Z,19.20
2018-02-06T06:49:59.715Z,21.55
2018-02-06T06:52:27.257Z,18.45
2018-02-06T06:54:54.828Z,20.80
2018-02-06T06:57:22.397Z,20.52
2018-02-06T06:59:49.934Z,22.05
2018-02-06T07:02:17.509Z,21.00
2018-02-06T07:04:46.205Z,19.65
2018-02-06T07:07:14.475Z,21.23
2018-02-06T07:09:42.012Z,21.00
2018-02-06T07:12:09.617Z,25.10
2018-02-06T07:14:37.205Z,24.08
2018-02-06T07:17:04.813Z,21.90
2018-02-06T07:19:32.394Z,23.23
2018-02-06T07:21:59.934Z,21.25
2018-02-06T07:24:27.515Z,21.35
2018-02-06T07:26:55.052Z,21.05
2018-02-06T07:29:22.660Z,20.75
2018-02-06T07:31:50.203Z,20.45
2018-02-06T07:34:17.775Z,21.10
2018-02-06T07:36:45.314Z,25.35
2018-02-06T07:39:12.899Z,22.33
2018-02-06T07:41:40.440Z,20.60
2018-02-06T07:44:08.032Z,19.40
2018-02-06T07:46:36.342Z,18.98
2018-02-06T07:49:03.921Z,22.87
2018-02-06T07:51:31.569Z,18.83
2018-02-06T07:53:59.155Z,22.15
2018-02-06T07:56:26.691Z,20.50
2018-02-06T07:58:54.269Z,20.30
2018-02-06T08:01:21.815Z,20.73
2018-02-06T08:03:49.445Z,20.23
2018-02-06T08:06:16.984Z,19.45
2018-02-06T08:08:45.348Z,20.10
2018-02-06T08:11:12.986Z,20.52
2018-02-06T08:13:40.532Z,22.10
2018-02-06T08:16:08.117Z,22.00
2018-02-06T08:18:35.655Z,21.17
2018-02-06T08:21:03.250Z,21.90
2018-02-06T08:23:30.785Z,23.40
2018-02-06T08:25:58.367Z,18.98
2018-02-06T08:28:25.922Z,22.05
2018-02-06T08:30:53.493Z,24.77
2018-02-06T08:33:21.820Z,23.45
2018-02-06T08:35:49.407Z,19.92
2018-02-06T08:38:16.964Z,19.05
2018-02-06T08:40:44.503Z,20.67
2018-02-06T08:43:12.164Z,21.00
2018-02-06T08:45:39.705Z,22.65
2018-02-06T08:48:07.276Z,22.23
2018-02-06T08:50:34.936Z,22.75
2018-02-06T08:53:02.473Z,20.40
2018-02-06T08:55:30.820Z,16.87
2018-02-06T08:57:58.376Z,21.08
2018-02-06T09:00:25.965Z,22.62
2018-02-06T09:02:54.437Z,21.65
2018-02-06T09:05:22.785Z,21.08
2018-02-06T09:07:50.323Z,22.40
2018-02-06T09:10:17.904Z,22.48
2018-02-06T09:12:45.451Z,21.12
2018-02-06T09:15:13.033Z,22.15
2018-02-06T09:17:40.564Z,23.40
2018-02-06T09:20:08.139Z,20.33
2018-02-06T09:22:35.690Z,18.30
2018-02-06T09:25:03.272Z,23.60
2018-02-06T09:27:30.807Z,23.40
2018-02-06T09:29:58.381Z,21.45
2018-02-06T09:32:25.929Z,22.15
2018-02-06T09:34:53.507Z,19.48
2018-02-06T09:37:21.052Z,20.60
2018-02-06T09:39:48.634Z,24.08
2018-02-06T09:42:16.171Z,20.52
2018-02-06T09:44:43.752Z,21.90
2018-02-06T09:47:12.057Z,18.33
2018-02-06T09:49:40.403Z,22.37
2018-02-06T09:52:07.949Z,22.55
2018-02-06T09:54:35.550Z,24.35
2018-02-06T09:57:03.847Z,20.40
2018-02-06T09:59:31.419Z,23.55
2018-02-06T10:01:58.956Z,21.60
2018-02-06T10:04:27.310Z,22.17
2018-02-06T10:06:54.849Z,20.45
2018-02-06T10:09:22.442Z,22.23
2018-02-06T10:11:50.792Z,20.60
2018-02-06T10:14:18.380Z,20.52
2018-02-06T10:16:46.712Z,18.52
2018-02-06T10:19:14.299Z,22.87
2018-02-06T10:21:41.835Z,20.08
2018-02-06T10:24:09.423Z,22.25
2018-02-06T10:26:38.465Z,20.65
2018-02-06T10:29:06.061Z,20.20
2018-02-06T10:31:33.608Z,21.40
2018-02-06T10:34:01.192Z,19.77
2018-02-06T10:36:28.723Z,21.30
2018-02-06T10:38:56.626Z,18.70
2018-02-06T10:41:24.358Z,17.83
2018-02-06T10:43:52.663Z,18.85
2018-02-06T10:46:20.240Z,19.70
2018-02-06T10:48:48.542Z,19.20
2018-02-06T10:51:16.108Z,18.58
2018-02-06T10:53:43.686Z,21.00
2018-02-06T10:56:11.250Z,18.90
2018-02-06T10:58:38.782Z,18.77
2018-02-06T11:01:06.348Z,18.75
2018-02-06T11:03:33.926Z,18.10
2018-02-06T11:06:01.498Z,17.87
2018-02-06T11:08:29.032Z,19.42
2018-02-06T11:10:56.614Z,17.80
2018-02-06T11:13:24.151Z,17.30
2018-02-06T11:15:51.691Z,18.23
2018-02-06T11:18:19.254Z,16.75
2018-02-06T11:20:46.789Z,19.23
2018-02-06T11:23:15.180Z,18.48
2018-02-06T11:25:43.474Z,17.52
2018-02-06T11:28:11.060Z,16.23
2018-02-06T11:30:38.715Z,17.90
2018-02-06T11:33:06.250Z,17.08
2018-02-06T11:35:33.811Z,15.60
2018-02-06T11:38:01.340Z,15.15
2018-02-06T11:40:29.684Z,16.52
2018-02-06T11:42:57.307Z,14.55
2018-02-06T11:45:24.855Z,17.62
2018-02-06T11:47:53.198Z,17.77
2018-02-06T11:50:20.729Z,17.00
2018-02-06T11:52:48.265Z,16.30
2018-02-06T11:55:15.843Z,15.85
2018-02-06T11:57:43.409Z,17.08
2018-02-06T12:00:10.978Z,17.80
2018-02-06T12:02:38.623Z,16.80
2018-02-06T12:05:06.194Z,17.83
2018-02-06T12:07:33.735Z,19.25
2018-02-06T12:10:01.314Z,19.85
2018-02-06T12:12:28.892Z,18.08
2018-02-06T12:14:56.456Z,20.05
2018-02-06T12:17:23.995Z,17.52
2018-02-06T12:19:51.558Z,17.90
2018-02-06T12:22:19.117Z,17.60
2018-02-06T12:24:47.563Z,17.52
2018-02-06T12:27:15.144Z,18.92
2018-02-06T12:29:42.714Z,17.92
2018-02-06T12:32:10.243Z,16.30
2018-02-06T12:34:37.816Z,17.23
2018-02-06T12:37:05.391Z,19.67
2018-02-06T12:39:32.966Z,18.05
2018-02-06T12:42:00.547Z,16.65
2018-02-06T12:44:28.089Z,16.90
2018-02-06T12:46:55.620Z,20.55
2018-02-06T12:49:23.190Z,17.85
2018-02-06T12:51:50.837Z,18.15
2018-02-06T12:54:18.423Z,19.50
2018-02-06T12:56:45.975Z,21.37
2018-02-06T12:59:13.546Z,17.30
2018-02-06T13:01:41.126Z,18.05
2018-02-06T13:04:08.732Z,18.45
2018-02-06T13:06:36.266Z,21.20
2018-02-06T13:09:04.616Z,18.12
2018-02-06T13:11:32.204Z,19.20
2018-02-06T13:13:59.803Z,21.52
2018-02-06T13:16:27.371Z,20.55
2018-02-06T13:18:54.912Z,18.10
2018-02-06T13:21:22.504Z,18.50
2018-02-06T13:23:50.048Z,18.85
2018-02-06T13:26:17.622Z,21.42
2018-02-06T13:28:45.163Z,18.70
2018-02-06T13:31:12.758Z,18.02
2018-02-06T13:33:40.295Z,20.80
2018-02-06T13:36:07.875Z,17.87
2018-02-06T13:38:35.453Z,19.20
2018-02-06T13:41:03.765Z,17.02
2018-02-06T13:43:31.350Z,18.73
2018-02-06T13:45:58.994Z,15.00
2018-02-06T13:48:26.534Z,21.95
2018-02-06T13:50:54.106Z,18.33
2018-02-06T13:53:21.644Z,17.80
2018-02-06T13:55:49.236Z,17.50
2018-02-06T13:58:16.893Z,17.73
2018-02-06T14:00:44.472Z,18.95
2018-02-06T14:03:12.010Z,20.37
2018-02-06T14:05:39.674Z,18.30
2018-02-06T14:08:07.215Z,21.15
2018-02-06T14:10:34.783Z,17.25
2018-02-06T14:13:02.388Z,20.77
2018-02-06T14:15:29.929Z,18.15
2018-02-06T14:17:57.496Z,18.87
2018-02-06T14:20:25.076Z,16.75
2018-02-06T14:22:52.653Z,16.25
2018-02-06T14:25:20.963Z,17.70
2018-02-06T14:27:48.632Z,15.27
2018-02-06T14:30:16.416Z,18.60
2018-02-06T14:32:43.955Z,14.87
2018-02-06T14:35:11.493Z,18.25
2018-02-06T14:37:39.070Z,16.92
2018-02-06T14:40:06.674Z,18.20
2018-02-06T14:42:34.213Z,17.17
2018-02-06T14:45:01.786Z,16.55
2018-02-06T14:47:29.320Z,18.25
2018-02-06T14:49:56.893Z,18.00
2018-02-06T14:52:24.433Z,18.77
2018-02-06T14:54:52.007Z,16.30
2018-02-06T14:57:19.586Z,15.40
2018-02-06T14:59:47.130Z,15.63
2018-02-06T15:02:14.763Z,13.75
2018-02-06T15:04:42.303Z,14.35
2018-02-06T15:07:10.644Z,14.55
2018-02-06T15:09:38.183Z,15.43
2018-02-06T15:12:05.761Z,14.77
2018-02-06T15:14:33.293Z,13.15
2018-02-06T15:17:00.832Z,14.40
2018-02-06T15:19:28.408Z,16.15
2018-02-06T15:21:55.947Z,14.55
2018-02-06T15:24:23.518Z,13.90
2018-02-06T15:26:51.121Z,13.85
2018-02-06T15:29:19.518Z,13.68
2018-02-06T15:31:47.063Z,13.95
2018-02-06T15:34:15.368Z,14.00
2018-02-06T15:36:43.789Z,14.80
2018-02-06T15:39:11.323Z,13.90
2018-02-06T15:41:38.892Z,13.45
2018-02-06T15:44:06.456Z,14.02
2018-02-06T15:46:34.062Z,13.48
2018-02-06T15:49:01.613Z,14.80
2018-02-06T15:51:29.196Z,12.85
2018-02-06T15:53:56.727Z,13.68
2018-02-06T15:56:24.306Z,13.50
2018-02-06T15:58:51.846Z,14.32
2018-02-06T16:01:19.482Z,14.23
2018-02-06T16:03:47.058Z,13.05
2018-02-06T16:06:14.644Z,15.35
2018-02-06T16:08:42.247Z,15.23
2018-02-06T16:11:09.811Z,13.90
2018-02-06T16:13:37.347Z,12.95
2018-02-06T16:16:05.686Z,13.45
2018-02-06T16:18:33.263Z,13.70
2018-02-06T16:21:00.802Z,14.50
2018-02-06T16:23:28.374Z,13.98
2018-02-06T16:25:55.920Z,14.50
2018-02-06T16:28:23.480Z,15.35
2018-02-06T16:30:51.056Z,14.38
2018-02-06T16:33:18.604Z,15.95
2018-02-06T16:35:46.184Z,14.82
2018-02-06T16:38:13.740Z,15.02
2018-02-06T16:40:41.334Z,17.45
2018-02-06T16:43:08.881Z,15.63
2018-02-06T16:45:37.181Z,13.73
2018-02-06T16:48:04.774Z,14.63
2018-02-06T16:50:32.321Z,17.30
2018-02-06T16:52:59.906Z,15.25
2018-02-06T16:55:27.435Z,15.88
2018-02-06T16:57:55.005Z,15.80
2018-02-06T17:00:22.538Z,14.98
2018-02-06T17:02:50.150Z,14.82
2018-02-06T17:05:17.690Z,15.50
2018-02-06T17:07:45.233Z,15.05
2018-02-06T17:10:12.893Z,15.90
2018-02-06T17:12:40.422Z,15.57
2018-02-06T17:15:07.969Z,15.73
2018-02-06T17:17:36.307Z,15.10
2018-02-06T17:20:03.847Z,15.50
2018-02-06T17:22:31.430Z,16.08
2018-02-06T17:24:58.966Z,15.63
2018-02-06T17:27:26.524Z,16.50
2018-02-06T17:29:54.107Z,17.85
2018-02-06T17:32:21.646Z,16.65
2018-02-06T17:34:49.221Z,16.05
2018-02-06T17:37:16.778Z,17.48
2018-02-06T17:39:44.358Z,16.52
2018-02-06T17:42:11.897Z,17.15
2018-02-06T17:44:39.468Z,17.25
2018-02-06T17:47:07.013Z,18.25
2018-02-06T17:49:34.617Z,16.55
2018-02-06T17:52:02.154Z,16.12
2018-02-06T17:54:29.760Z,16.75
2018-02-06T17:56:57.355Z,16.85
2018-02-06T17:59:24.936Z,17.45
2018-02-06T18:01:52.476Z,17.00
2018-02-06T18:04:20.125Z,17.08
2018-02-06T18:06:47.665Z,16.62
2018-02-06T18:09:15.262Z,17.80
2018-02-06T18:11:42.811Z,19.33
2018-02-06T18:14:10.393Z,16.67
2018-02-06T18:16:37.935Z,17.65
2018-02-06T18:19:05.559Z,17.87
2018-02-06T18:21:33.850Z,18.75
2018-02-06T18:24:01.432Z,17.37
2018-02-06T18:26:28.978Z,18.10
2018-02-06T18:28:56.579Z,17.12
2018-02-06T18:31:24.935Z,17.85
2018-02-06T18:33:52.441Z,19.20
2018-02-06T18:36:20.793Z,19.62
2018-02-06T18:38:48.382Z,15.90
2018-02-06T18:41:16.700Z,19.62
2018-02-06T18:43:44.290Z,17.87
2018-02-06T18:46:11.821Z,17.27
2018-02-06T18:48:39.408Z,17.85
2018-02-06T18:51:07.039Z,18.35
2018-02-06T18:53:34.660Z,19.20
2018-02-06T18:56:02.995Z,16.90
2018-02-06T18:58:30.535Z,18.40
2018-02-06T19:00:58.127Z,16.92
2018-02-06T19:03:25.711Z,17.20
2018-02-06T19:05:54.056Z,20.48
2018-02-06T19:08:21.605Z,18.80
2018-02-06T19:10:49.208Z,17.20
2018-02-06T19:13:17.530Z,19.17
2018-02-06T19:15:45.201Z,16.92
2018-02-06T19:18:12.771Z,19.00
2018-02-06T19:20:40.358Z,18.20
2018-02-06T19:23:07.928Z,18.77
2018-02-06T19:25:36.267Z,19.73
2018-02-06T19:28:03.869Z,21.35
2018-02-06T19:30:32.178Z,18.35
2018-02-06T19:32:59.901Z,17.67
2018-02-06T19:35:27.496Z,18.25
2018-02-06T19:37:55.053Z,18.67
2018-02-06T19:40:22.603Z,18.83
2018-02-06T19:42:51.002Z,18.23
2018-02-06T19:45:18.535Z,19.25
2018-02-06T19:47:46.843Z,18.00
2018-02-06T19:50:14.423Z,17.73
2018-02-06T19:52:42.011Z,18.42
2018-02-06T19:55:09.595Z,17.70
2018-02-06T19:57:37.946Z,18.35
2018-02-06T20:00:05.482Z,18.12
2018-02-06T20:02:33.051Z,16.45
2018-02-06T20:05:00.685Z,18.00
2018-02-06T20:07:28.313Z,18.95
2018-02-06T20:09:56.667Z,18.20
2018-02-06T20:12:25.735Z,18.62
2018-02-06T20:14:53.311Z,18.83
2018-02-06T20:17:20.905Z,19.05
2018-02-06T20:19:49.235Z,18.25
2018-02-06T20:22:16.773Z,17.65
2018-02-06T20:24:44.350Z,17.85
2018-02-06T20:27:11.890Z,17.45
2018-02-06T20:29:39.522Z,19.15
2018-02-06T20:32:07.872Z,17.42
2018-02-06T20:34:35.461Z,18.92
2018-02-06T20:37:03.821Z,18.17
2018-02-06T20:39:32.131Z,17.55
2018-02-06T20:41:59.742Z,19.58
2018-02-06T20:44:27.350Z,19.70
2018-02-06T20:46:55.529Z,20.85
2018-02-06T20:49:23.104Z,19.45
2018-02-06T20:51:50.787Z,17.55
2018-02-06T20:54:18.392Z,18.70
2018-02-06T20:56:46.725Z,19.48
2018-02-06T20:59:14.329Z,18.92
2018-02-06T21:01:42.684Z,18.62
2018-02-06T21:04:10.303Z,19.58
2018-02-06T21:06:37.881Z,18.83
2018-02-06T21:09:05.423Z,19.73
2018-02-06T21:11:33.058Z,18.55
2018-02-06T21:14:01.356Z,18.45
2018-02-06T21:16:29.000Z,18.05
2018-02-06T21:18:56.545Z,18.25
2018-02-06T21:21:24.854Z,18.58
2018-02-06T21:23:52.491Z,17.65
2018-02-06T21:26:20.793Z,16.90
2018-02-06T21:28:48.370Z,18.37
2018-02-06T21:31:15.907Z,19.17
2018-02-06T21:33:43.483Z,21.30
2018-02-06T21:36:11.011Z,20.15
2018-02-06T21:38:39.310Z,22.58
2018-02-06T21:41:06.887Z,20.25
2018-02-06T21:43:34.412Z,19.70
2018-02-06T21:46:01.984Z,18.02
2018-02-06T21:48:29.623Z,17.40
2018-02-06T21:50:57.966Z,20.08
2018-02-06T21:53:25.547Z,18.40
2018-02-06T21:55:53.895Z,18.37
2018-02-06T21:58:21.446Z,19.05
2018-02-06T22:00:49.065Z,16.77
2018-02-06T22:03:16.648Z,17.85
2018-02-06T22:05:44.184Z,17.62
2018-02-06T22:08:11.761Z,19.23
2018-02-06T22:10:39.345Z,18.00
2018-02-06T22:13:06.915Z,17.80
2018-02-06T22:15:34.457Z,18.80
2018-02-06T22:18:02.022Z,18.75
2018-02-06T22:20:29.612Z,19.23
2018-02-06T22:22:57.154Z,18.20
2018-02-06T22:25:24.688Z,19.40
2018-02-06T22:27:52.268Z,18.05
2018-02-06T22:30:19.843Z,18.83
2018-02-06T22:32:47.381Z,20.45
2018-02-06T22:35:14.967Z,20.90
2018-02-06T22:37:42.508Z,18.10
2018-02-06T22:40:10.090Z,19.87
2018-02-06T22:42:37.622Z,20.60
2018-02-06T22:45:05.157Z,19.12
2018-02-06T22:47:32.813Z,18.85
2018-02-06T22:50:00.370Z,19.40
2018-02-06T22:52:27.953Z,20.33
2018-02-06T22:54:55.491Z,19.50
2018-02-06T22:57:23.035Z,20.75
2018-02-06T22:59:51.377Z,19.30
2018-02-06T23:02:18.907Z,19.25
2018-02-06T23:04:46.476Z,20.95
2018-02-06T23:07:14.058Z,19.05
2018-02-06T23:09:41.681Z,18.00
2018-02-06T23:12:09.268Z,18.75
2018-02-06T23:14:36.804Z,18.95
2018-02-06T23:17:04.373Z,19.65
2018-02-06T23:19:31.957Z,18.77
2018-02-06T23:21:59.491Z,18.98
2018-02-06T23:24:27.253Z,20.85
2018-02-06T23:26:54.821Z,17.83
2018-02-06T23:29:22.365Z,19.80
2018-02-06T23:31:49.945Z,21.23
2018-02-06T23:34:17.520Z,17.98
2018-02-06T23:36:45.054Z,19.90
2018-02-06T23:39:12.635Z,20.25
2018-02-06T23:41:40.171Z,19.40
2018-02-06T23:44:07.743Z,20.20
2018-02-06T23:46:35.278Z,19.02
2018-02-06T23:49:02.942Z,19.50
2018-02-06T23:51:30.521Z,19.80
2018-02-06T23:53:58.058Z,19.75
2018-02-06T23:56:25.627Z,19.02
2018-02-06T23:58:53.159Z,20.05
